Time;durP1;ratioP1;P1;durP2;ratioP2;P2;SDS_P1;SDS_P2;PMS_P1;PMS_P2;Temp;Humidity;BMP_temperature;BMP_pressure;BME280_temperature;BME280_humidity;BME280_pressure;Samples;Min_cycle;Max_cycle;Signal;HPM_P1;HPM_P2
2021/07/04 00:01:49;;;;;;;11.13;4.13;;;;;;;18.49;64.76;99358.47;5052611;28;20105;-74
2021/07/04 00:04:15;;;;;;;5.25;3.97;;;;;;;18.41;64.91;99352.81;5052863;28;20564;-72
2021/07/04 00:06:41;;;;;;;8.27;3.97;;;;;;;18.54;64.50;99359.03;5053983;28;20156;-74
2021/07/04 00:09:06;;;;;;;6.45;3.90;;;;;;;18.41;64.78;99347.50;5053729;28;20045;-73
2021/07/04 00:11:32;;;;;;;14.77;4.20;;;;;;;18.53;64.65;99367.09;5053668;28;20127;-74
2021/07/04 00:13:58;;;;;;;6.22;3.72;;;;;;;18.38;65.03;99361.78;5053812;28;20037;-74
2021/07/04 00:16:23;;;;;;;8.95;3.90;;;;;;;18.44;65.15;99371.16;5053831;28;20505;-74
2021/07/04 00:18:49;;;;;;;6.65;3.85;;;;;;;18.40;65.14;99349.31;5053869;28;20045;-72
2021/07/04 00:21:15;;;;;;;6.07;3.72;;;;;;;18.35;65.39;99356.69;5052686;28;20076;-74
2021/07/04 00:23:41;;;;;;;8.25;3.50;;;;;;;18.52;64.99;99374.19;5053438;28;20072;-72
2021/07/04 00:26:07;;;;;;;4.80;3.67;;;;;;;18.52;65.22;99371.53;5052230;28;20471;-74
2021/07/04 00:28:32;;;;;;;5.35;3.45;;;;;;;18.51;65.24;99375.13;5054196;28;20132;-75
2021/07/04 00:31:03;;;;;;;8.88;3.80;;;;;;;18.42;65.22;99365.97;5053668;28;20052;-75
2021/07/04 00:33:29;;;;;;;6.35;3.50;;;;;;;18.42;65.40;99362.47;5053133;28;20037;-72
2021/07/04 00:35:55;;;;;;;7.65;2.92;;;;;;;18.59;65.02;99366.72;5052120;28;20049;-73
2021/07/04 00:38:21;;;;;;;6.28;3.17;;;;;;;18.96;63.49;99376.72;5052310;28;20379;-72
2021/07/04 00:40:48;;;;;;;9.82;3.35;;;;;;;19.27;62.64;99388.81;5052410;28;20076;-72
2021/07/04 00:43:14;;;;;;;4.80;3.20;;;;;;;19.16;63.08;99385.16;5051420;28;20056;-71
2021/07/04 00:45:40;;;;;;;5.50;3.33;;;;;;;19.20;62.92;99391.97;5051123;28;20032;-74
2021/07/04 00:48:08;;;;;;;8.63;3.40;;;;;;;19.13;62.86;99378.25;5051245;28;20090;-72
2021/07/04 00:50:34;;;;;;;4.50;3.20;;;;;;;19.05;63.08;99372.63;5053054;28;20041;-73
2021/07/04 00:53:02;;;;;;;6.07;3.30;;;;;;;19.11;62.97;99384.63;5051211;28;20057;-73
2021/07/04 00:55:33;;;;;;;8.23;3.30;;;;;;;18.96;63.53;99399.72;5052063;28;20125;-73
2021/07/04 00:58:05;;;;;;;6.85;3.40;;;;;;;18.89;63.47;99380.69;5051256;28;20045;-70
2021/07/04 01:00:36;;;;;;;3.95;3.53;;;;;;;18.92;63.66;99391.09;5051710;28;20418;-74
2021/07/04 01:03:02;;;;;;;5.10;3.00;;;;;;;19.10;63.20;99394.38;5052186;28;20123;-73
2021/07/04 01:05:30;;;;;;;6.07;3.00;;;;;;;19.02;63.31;99391.38;5052871;28;20211;-72
2021/07/04 01:07:57;;;;;;;9.90;3.10;;;;;;;18.91;63.64;99394.72;5053139;28;20490;-74
2021/07/04 01:10:27;;;;;;;5.28;3.08;;;;;;;18.86;63.71;99401.25;5051692;28;20041;-73
2021/07/04 01:13:02;;;;;;;6.28;2.92;;;;;;;18.98;63.73;99397.81;5051575;28;20091;-75
2021/07/04 01:15:31;;;;;;;8.30;3.42;;;;;;;18.84;63.89;99406.66;5051442;28;20052;-73
2021/07/04 01:18:00;;;;;;;10.48;3.88;;;;;;;18.74;64.44;99413.47;5052593;28;20041;-72
2021/07/04 01:20:28;;;;;;;9.32;4.25;;;;;;;18.65;64.54;99403.47;5050577;28;20395;-72
2021/07/04 01:23:00;;;;;;;9.35;4.72;;;;;;;18.64;64.96;99404.41;5034438;28;20049;-74
2021/07/04 01:25:27;;;;;;;10.00;4.47;;;;;;;18.62;65.11;99411.59;5052511;28;20057;-74
2021/07/04 01:27:54;;;;;;;7.35;4.28;;;;;;;18.47;65.45;99410.69;5051802;28;20044;-73
2021/07/04 01:30:20;;;;;;;8.40;4.65;;;;;;;18.31;65.79;99394.91;5052156;28;20067;-73
2021/07/04 01:32:47;;;;;;;13.75;4.80;;;;;;;18.26;66.04;99404.06;5034301;28;20048;-73
2021/07/04 01:35:13;;;;;;;14.52;4.85;;;;;;;18.28;66.39;99412.78;5051223;28;20041;-71
2021/07/04 01:37:40;;;;;;;5.28;4.03;;;;;;;18.31;66.17;99409.94;5050691;28;20047;-71
2021/07/04 01:40:07;;;;;;;14.32;5.00;;;;;;;18.31;66.45;99409.94;5050722;28;20040;-72
2021/07/04 01:42:33;;;;;;;13.93;4.80;;;;;;;18.31;66.50;99405.50;5050486;28;20067;-72
2021/07/04 01:44:59;;;;;;;13.68;5.22;;;;;;;18.22;66.57;99391.97;5049870;28;20044;-72
2021/07/04 01:47:25;;;;;;;8.70;4.90;;;;;;;18.28;66.49;99394.25;5051203;28;20044;-73
2021/07/04 01:49:51;;;;;;;8.65;4.00;;;;;;;18.26;66.43;99391.69;5049967;28;20529;-73
2021/07/04 01:52:17;;;;;;;8.52;3.90;;;;;;;18.26;66.23;99390.84;5050663;28;20136;-72
2021/07/04 01:54:43;;;;;;;8.70;3.22;;;;;;;18.34;66.36;99400.00;5049085;28;20068;-71
2021/07/04 01:57:13;;;;;;;9.00;4.30;;;;;;;18.22;66.13;99389.31;5050189;28;20041;-73
2021/07/04 02:00:00;;;;;;;9.30;4.10;;;;;;;18.30;66.46;99402.94;5050286;28;20087;-73
2021/07/04 02:02:44;;;;;;;6.70;3.53;;;;;;;18.28;66.41;99404.81;5050556;28;20076;-72
2021/07/04 02:05:11;;;;;;;7.07;3.97;;;;;;;18.25;66.41;99405.88;5051377;28;20090;-74
2021/07/04 02:07:37;;;;;;;12.68;4.20;;;;;;;18.28;66.54;99407.47;5033716;28;20080;-72
2021/07/04 02:10:06;;;;;;;7.40;3.97;;;;;;;18.22;66.45;99400.75;5051621;28;20053;-74
2021/07/04 02:12:41;;;;;;;10.70;4.22;;;;;;;18.30;66.44;99408.22;5049892;28;20058;-73
2021/07/04 02:15:13;;;;;;;15.23;4.78;;;;;;;18.30;66.81;99410.88;5050700;28;20106;-72
2021/07/04 02:17:47;;;;;;;10.38;3.97;;;;;;;18.26;67.11;99404.91;5050715;28;20398;-72
2021/07/04 02:20:39;;;;;;;7.70;3.65;;;;;;;18.20;66.93;99396.50;5050492;28;20040;-71
2021/07/04 02:23:27;;;;;;;7.60;4.38;;;;;;;18.20;66.97;99396.50;5050740;28;20037;-72
2021/07/04 02:26:22;;;;;;;9.40;3.53;;;;;;;18.14;66.79;99402.16;5031877;28;20128;-74
2021/07/04 02:28:51;;;;;;;6.93;3.22;;;;;;;18.25;67.11;99420.91;5050084;28;20136;-72
2021/07/04 02:31:25;;;;;;;8.95;3.65;;;;;;;18.14;67.17;99399.53;5050442;28;20049;-76
2021/07/04 02:33:54;;;;;;;6.70;3.38;;;;;;;18.28;67.31;99420.72;5052250;28;20048;-77
2021/07/04 02:36:21;;;;;;;3.42;3.13;;;;;;;18.20;67.31;99413.25;5049716;28;20055;-73
2021/07/04 02:38:48;;;;;;;4.07;3.33;;;;;;;18.19;67.30;99434.50;5049636;28;20051;-72
2021/07/04 02:41:15;;;;;;;4.82;3.50;;;;;;;18.14;67.45;99424.19;5050575;28;20493;-72
2021/07/04 02:43:41;;;;;;;7.85;3.75;;;;;;;18.24;67.37;99427.13;5050857;28;20104;-71
2021/07/04 02:46:11;;;;;;;7.63;3.85;;;;;;;18.26;67.46;99438.50;5048579;28;20069;-73
2021/07/04 02:48:37;;;;;;;6.05;3.47;;;;;;;18.22;67.37;99426.38;5049452;28;20071;-72
2021/07/04 02:51:03;;;;;;;6.55;3.47;;;;;;;18.21;67.48;99428.19;5049232;28;20045;-74
2021/07/04 02:53:30;;;;;;;8.00;4.00;;;;;;;18.19;67.45;99424.78;5051616;28;20037;-71
2021/07/04 02:56:03;;;;;;;;;;;;;;;18.29;67.57;99436.50;5050175;28;20044;-70
2021/07/04 02:58:35;;;;;;;5.73;3.80;;;;;;;18.27;67.62;99427.81;5049996;28;19920;-72
2021/07/04 03:01:01;;;;;;;4.68;3.35;;;;;;;18.31;67.29;99437.25;5033339;28;20045;-71
2021/07/04 03:03:29;;;;;;;3.95;3.20;;;;;;;18.32;67.21;99432.81;5048835;28;20043;-71
2021/07/04 03:05:56;;;;;;;4.93;3.22;;;;;;;18.35;67.12;99441.44;5050794;28;20045;-72
2021/07/04 03:08:22;;;;;;;4.57;3.25;;;;;;;18.39;66.79;99450.03;5047410;28;20060;-72
2021/07/04 03:10:49;;;;;;;4.28;3.10;;;;;;;18.36;67.00;99442.28;5016018;28;20488;-74
2021/07/04 03:13:19;;;;;;;5.05;2.90;;;;;;;18.37;67.28;99443.97;5048988;28;20045;-74
2021/07/04 03:15:46;;;;;;;5.30;2.92;;;;;;;18.46;66.79;99443.41;5049181;28;20055;-73
2021/07/04 03:18:11;;;;;;;8.73;3.20;;;;;;;18.38;67.27;99443.88;5050498;28;20041;-72
2021/07/04 03:20:41;;;;;;;7.55;3.38;;;;;;;18.43;67.13;99427.72;5049609;28;20041;-76
2021/07/04 03:23:10;;;;;;;4.22;3.08;;;;;;;18.42;67.37;99441.91;5034784;28;20509;-69
2021/07/04 03:25:37;;;;;;;7.57;3.83;;;;;;;18.66;66.52;99443.09;5053924;28;20522;-71
2021/07/04 03:28:04;;;;;;;8.52;3.05;;;;;;;18.70;66.66;99439.31;5021093;28;20052;-71
2021/07/04 03:30:34;;;;;;;3.63;3.20;;;;;;;18.71;66.60;99438.38;5055017;28;20060;-71
2021/07/04 03:33:02;;;;;;;5.45;3.60;;;;;;;18.65;66.45;99446.69;5053614;28;20041;-70
2021/07/04 03:35:30;;;;;;;5.20;3.58;;;;;;;18.67;66.70;99459.84;5004334;28;20449;-73
2021/07/04 03:37:59;;;;;;;7.55;3.47;;;;;;;18.56;66.92;99463.09;5019831;28;20040;-74
2021/07/04 03:40:26;;;;;;;8.63;3.10;;;;;;;18.55;67.15;99471.13;5052424;28;20457;-71
2021/07/04 03:42:58;;;;;;;4.80;3.88;;;;;;;18.54;67.43;99462.34;5021356;28;20418;-71
2021/07/04 03:45:29;;;;;;;12.15;3.78;;;;;;;18.58;67.42;99449.75;5020056;28;20053;-70
2021/07/04 03:47:57;;;;;;;7.88;3.75;;;;;;;18.53;67.85;99465.94;5019604;28;20143;-71
2021/07/04 03:50:35;;;;;;;6.50;3.60;;;;;;;18.56;67.59;99470.19;5007003;28;20042;-72
2021/07/04 03:53:02;;;;;;;5.85;4.20;;;;;;;18.61;67.35;99471.69;5052883;28;20032;-72
2021/07/04 03:55:30;;;;;;;7.20;3.63;;;;;;;18.37;67.61;99458.06;5036285;28;20045;-72
2021/07/04 03:57:58;;;;;;;6.93;4.13;;;;;;;18.39;67.88;99466.78;5052747;28;20041;-72
2021/07/04 04:00:36;;;;;;;5.72;3.53;;;;;;;18.48;68.44;99475.97;5052199;28;20036;-74
2021/07/04 04:03:08;;;;;;;5.85;3.28;;;;;;;18.38;68.14;99473.00;5053367;28;20053;-77
2021/07/04 04:05:41;;;;;;;3.60;3.30;;;;;;;18.34;68.38;99483.88;5052092;28;20045;-80
2021/07/04 04:08:08;;;;;;;6.53;4.25;;;;;;;18.20;69.37;99481.22;5052556;28;20075;-84
2021/07/04 04:10:35;;;;;;;3.45;2.92;;;;;;;18.02;69.20;99478.72;5054029;28;20049;-73
2021/07/04 04:13:08;;;;;;;4.97;3.80;;;;;;;18.04;69.72;99505.09;5052344;28;20078;-84
2021/07/04 04:15:38;;;;;;;4.40;3.30;;;;;;;17.96;69.66;99483.53;5053496;28;20041;-76
2021/07/04 04:18:05;;;;;;;9.85;3.53;;;;;;;18.00;70.28;99516.81;5052553;28;20045;-77
2021/07/04 04:20:32;;;;;;;5.20;3.35;;;;;;;18.00;70.32;99520.31;5052381;28;20056;-77
2021/07/04 04:23:00;;;;;;;5.07;4.22;;;;;;;18.01;70.28;99513.22;5052652;28;20051;-77
2021/07/04 04:25:26;;;;;;;5.55;3.67;;;;;;;18.03;70.02;99511.34;5054047;28;20110;-75
2021/07/04 04:27:54;;;;;;;7.00;4.35;;;;;;;18.04;70.35;99508.59;5054171;28;20041;-77
2021/07/04 04:30:21;;;;;;;10.40;3.80;;;;;;;18.07;70.63;99513.72;5052418;28;20056;-77
2021/07/04 04:32:49;;;;;;;11.05;3.50;;;;;;;18.09;69.85;99509.19;5052539;28;20063;-77
2021/07/04 04:35:15;;;;;;;7.10;3.72;;;;;;;18.03;70.39;99509.53;5052480;28;20052;-77
2021/07/04 04:37:41;;;;;;;6.50;3.60;;;;;;;18.08;70.13;99523.34;5048127;28;20051;-79
2021/07/04 04:40:07;;;;;;;7.75;4.10;;;;;;;17.95;70.29;99516.22;5051974;28;20060;-78
2021/07/04 04:42:34;;;;;;;9.43;4.30;;;;;;;18.04;70.81;99524.47;5052739;28;20083;-77
2021/07/04 04:45:00;;;;;;;5.82;3.80;;;;;;;17.99;70.44;99515.94;5051439;28;20065;-73
2021/07/04 04:47:26;;;;;;;3.97;3.40;;;;;;;18.00;70.23;99507.06;5052590;28;20072;-74
2021/07/04 04:49:52;;;;;;;4.60;3.78;;;;;;;17.99;70.34;99510.66;5052587;28;20072;-78
2021/07/04 04:52:18;;;;;;;7.47;3.35;;;;;;;17.99;70.88;99505.38;5056302;28;20094;-80
2021/07/04 04:54:43;;;;;;;3.65;3.30;;;;;;;18.10;70.40;99529.41;5053149;28;20132;-73
2021/07/04 04:57:09;;;;;;;4.55;3.55;;;;;;;18.09;70.67;99522.41;5052175;28;20417;-79
2021/07/04 04:59:37;;;;;;;4.78;3.30;;;;;;;17.92;70.73;99509.31;5052351;28;20414;-78
2021/07/04 05:02:03;;;;;;;7.35;3.50;;;;;;;17.95;70.84;99516.22;5050172;28;20079;-78
2021/07/04 05:04:29;;;;;;;6.28;4.80;;;;;;;17.89;70.97;99517.44;5052432;28;20183;-77
2021/07/04 05:06:54;;;;;;;6.93;3.70;;;;;;;18.00;71.07;99527.38;5049247;28;20131;-75
2021/07/04 05:09:20;;;;;;;9.30;4.05;;;;;;;18.04;71.10;99521.84;5051629;28;20040;-78
2021/07/04 05:11:49;;;;;;;6.45;3.70;;;;;;;18.09;71.07;99525.06;5051451;28;20418;-75
2021/07/04 05:14:16;;;;;;;12.27;4.50;;;;;;;18.07;71.06;99519.00;5051600;28;20041;-77
2021/07/04 05:16:42;;;;;;;8.63;4.00;;;;;;;18.07;71.40;99524.28;5050319;28;20083;-79
2021/07/04 05:19:10;;;;;;;18.75;4.25;;;;;;;18.17;71.37;99529.06;5051120;28;20060;-78
2021/07/04 05:21:37;;;;;;;10.02;4.22;;;;;;;18.19;71.47;99512.13;5051376;28;20045;-77
2021/07/04 05:24:05;;;;;;;5.63;3.63;;;;;;;18.14;71.13;99516.84;5051322;28;20053;-70
2021/07/04 05:26:31;;;;;;;4.47;4.00;;;;;;;18.08;71.06;99510.13;5052474;28;20132;-76
2021/07/04 05:28:58;;;;;;;8.90;3.97;;;;;;;18.16;71.28;99530.00;5051156;28;20049;-77
2021/07/04 05:31:24;;;;;;;7.05;4.03;;;;;;;18.21;71.39;99526.13;5052214;28;20406;-80
2021/07/04 05:33:50;;;;;;;5.25;3.40;;;;;;;18.09;71.43;99526.84;5049521;28;20136;-80
2021/07/04 05:36:16;;;;;;;7.45;4.70;;;;;;;18.20;71.02;99519.13;5051241;28;20044;-74
2021/07/04 05:38:42;;;;;;;4.50;3.58;;;;;;;18.19;70.47;99541.25;5033224;28;20067;-75
2021/07/04 05:41:09;;;;;;;5.28;4.78;;;;;;;18.27;70.94;99540.81;5050389;28;20364;-78
2021/07/04 05:43:36;;;;;;;9.82;4.28;;;;;;;18.26;70.71;99524.06;5050906;28;20044;-80
2021/07/04 05:46:02;;;;;;;5.30;3.97;;;;;;;18.36;70.77;99532.31;5046659;28;20106;-74
2021/07/04 05:48:28;;;;;;;10.73;3.95;;;;;;;18.32;69.73;99517.56;5050784;28;20552;-77
2021/07/04 05:50:55;;;;;;;6.65;4.05;;;;;;;18.36;70.45;99534.97;5048445;28;20083;-78
2021/07/04 05:53:21;;;;;;;9.18;4.90;;;;;;;18.51;70.00;99535.84;5049274;28;20132;-78
2021/07/04 05:55:47;;;;;;;8.68;4.55;;;;;;;18.52;70.36;99532.25;5050893;28;20124;-76
2021/07/04 05:58:12;;;;;;;8.15;5.00;;;;;;;18.56;70.26;99542.56;5048835;28;20037;-76
2021/07/04 06:00:39;;;;;;;6.85;5.00;;;;;;;18.73;69.09;99544.25;5050192;28;20093;-80
2021/07/04 06:03:05;;;;;;;6.72;4.28;;;;;;;18.72;69.42;99542.56;5049924;28;20076;-77
2021/07/04 06:05:31;;;;;;;5.00;4.13;;;;;;;18.84;69.50;99546.25;5049171;28;20376;-80
2021/07/04 06:07:57;;;;;;;9.95;4.55;;;;;;;18.53;69.38;99521.56;5032833;28;20114;-77
2021/07/04 06:10:23;;;;;;;9.15;4.63;;;;;;;18.65;69.47;99531.47;5047538;28;20041;-73
2021/07/04 06:12:48;;;;;;;5.80;3.92;;;;;;;18.81;69.55;99549.09;5048931;28;20563;-76
2021/07/04 06:15:14;;;;;;;4.82;4.13;;;;;;;18.68;69.12;99533.09;5049431;28;20037;-74
2021/07/04 06:17:40;;;;;;;5.05;4.05;;;;;;;18.80;68.74;99550.03;5050233;28;20051;-75
2021/07/04 06:20:08;;;;;;;9.57;3.92;;;;;;;18.77;68.84;99550.22;5049679;28;20055;-76
2021/07/04 06:22:35;;;;;;;10.55;4.85;;;;;;;18.76;68.72;99528.16;5049936;28;20135;-76
2021/07/04 06:25:03;;;;;;;9.13;4.50;;;;;;;18.81;68.63;99533.19;5050546;28;20053;-74
2021/07/04 06:27:29;;;;;;;16.63;4.75;;;;;;;18.83;68.25;99544.53;5050579;28;20494;-75
2021/07/04 06:29:55;;;;;;;7.70;4.15;;;;;;;18.89;68.21;99550.31;5049811;28;20059;-77
2021/07/04 06:32:21;;;;;;;11.73;4.10;;;;;;;18.97;68.21;99531.28;5049705;28;20080;-76
2021/07/04 06:34:46;;;;;;;7.72;4.40;;;;;;;19.03;67.61;99558.28;5048204;28;20041;-75
2021/07/04 06:37:13;;;;;;;9.02;4.70;;;;;;;19.02;67.67;99545.13;5048728;28;20060;-77
2021/07/04 06:39:38;;;;;;;11.27;5.65;;;;;;;19.04;67.69;99559.97;5049175;28;20047;-76
2021/07/04 06:42:04;;;;;;;5.32;4.22;;;;;;;19.02;66.43;99534.50;5050166;28;20037;-76
2021/07/04 06:44:30;;;;;;;10.05;5.30;;;;;;;19.20;67.40;99565.19;5030965;28;20618;-77
2021/07/04 06:46:56;;;;;;;7.45;5.18;;;;;;;19.30;66.75;99560.16;5050120;28;20479;-75
2021/07/04 06:49:21;;;;;;;7.13;5.30;;;;;;;19.27;66.64;99545.28;5048580;28;20044;-76
2021/07/04 06:51:47;;;;;;;6.90;4.72;;;;;;;19.51;66.59;99555.31;5048411;28;20041;-74
2021/07/04 06:54:14;;;;;;;6.65;4.63;;;;;;;19.36;66.24;99536.78;5049191;28;20080;-81
2021/07/04 06:56:40;;;;;;;9.75;4.88;;;;;;;19.39;66.20;99567.56;5045346;28;20411;-79
2021/07/04 06:59:06;;;;;;;12.02;6.22;;;;;;;19.34;64.93;99546.63;5051507;28;20052;-78
2021/07/04 07:01:33;;;;;;;19.10;9.50;;;;;;;19.44;65.73;99556.66;5051157;28;20131;-80
2021/07/04 07:03:59;;;;;;;10.48;4.50;;;;;;;19.59;64.78;99555.72;5051420;28;20048;-77
2021/07/04 07:06:25;;;;;;;14.07;4.47;;;;;;;19.55;64.72;99532.97;5050936;28;20390;-76
2021/07/04 07:08:52;;;;;;;7.63;5.00;;;;;;;19.81;64.85;99549.84;5051889;28;20385;-78
2021/07/04 07:11:18;;;;;;;12.18;5.00;;;;;;;19.83;64.65;99524.91;5051971;28;20036;-73
2021/07/04 07:13:44;;;;;;;11.73;5.30;;;;;;;19.98;64.62;99537.19;5051697;28;20045;-73
2021/07/04 07:16:09;;;;;;;11.60;5.03;;;;;;;19.91;64.52;99519.94;5051592;28;20116;-74
2021/07/04 07:18:35;;;;;;;11.18;4.70;;;;;;;20.14;63.59;99521.09;5050489;28;20060;-72
2021/07/04 07:21:02;;;;;;;9.70;5.07;;;;;;;20.31;62.81;99543.88;5051687;28;20040;-74
2021/07/04 07:23:27;;;;;;;9.82;4.05;;;;;;;20.16;62.81;99523.66;5035372;28;20052;-77
2021/07/04 07:25:53;;;;;;;14.85;7.20;;;;;;;20.12;62.61;99546.91;5052695;28;20144;-81
2021/07/04 07:28:20;;;;;;;12.00;4.47;;;;;;;20.17;62.62;99546.59;5052515;28;20087;-81
2021/07/04 07:30:54;;;;;;;12.50;3.90;;;;;;;20.29;61.99;99540.47;5052393;28;20543;-73
2021/07/04 07:33:24;;;;;;;7.80;4.20;;;;;;;20.33;62.23;99523.38;5020412;28;20144;-81
2021/07/04 07:35:51;;;;;;;5.38;4.00;;;;;;;20.23;61.08;99506.34;5051946;28;20132;-81
2021/07/04 07:38:18;;;;;;;4.40;3.15;;;;;;;20.45;60.09;99543.81;5053387;28;20048;-83
2021/07/04 07:40:44;;;;;;;8.38;4.05;;;;;;;20.57;60.39;99535.00;5052509;28;20037;-83
2021/07/04 07:43:10;;;;;;;10.02;3.70;;;;;;;20.87;60.34;99539.19;5051635;28;20047;-77
2021/07/04 07:45:40;;;;;;;7.65;3.30;;;;;;;20.75;60.14;99550.66;5051002;28;20053;-84
2021/07/04 07:48:08;;;;;;;5.72;3.55;;;;;;;20.80;59.50;99544.06;5034911;28;20080;-81
2021/07/04 07:50:56;;;;;;;7.53;3.83;;;;;;;20.76;60.10;99528.41;5052133;28;20048;-83
2021/07/04 07:53:22;;;;;;;7.57;3.70;;;;;;;21.09;59.25;99536.72;5018099;28;20079;-83
2021/07/04 07:55:49;;;;;;;7.75;4.28;;;;;;;20.79;59.59;99541.50;5017456;28;20041;-78
2021/07/04 07:58:16;;;;;;;6.38;3.95;;;;;;;20.68;60.08;99541.41;5033922;28;20049;-81
2021/07/04 08:00:47;;;;;;;11.02;4.88;;;;;;;20.62;60.39;99511.63;5032895;28;20136;-73
2021/07/04 08:03:13;;;;;;;5.18;2.83;;;;;;;20.65;59.29;99515.03;5050351;28;20116;-79
2021/07/04 08:05:40;;;;;;;6.40;3.90;;;;;;;20.89;58.64;99540.78;5052641;28;20056;-83
2021/07/04 08:08:06;;;;;;;6.07;3.80;;;;;;;21.10;58.54;99534.91;5031985;28;20036;-80
2021/07/04 08:10:34;;;;;;;3.40;3.10;;;;;;;21.10;57.97;99518.94;5049365;28;20048;-84
2021/07/04 08:13:01;;;;;;;4.03;3.13;;;;;;;21.14;57.89;99531.06;5049917;28;20081;-84
2021/07/04 08:15:27;;;;;;;3.20;2.97;;;;;;;21.37;58.04;99543.63;5050085;28;20492;-83
2021/07/04 08:17:53;;;;;;;5.00;3.33;;;;;;;21.46;57.75;99547.41;5033817;28;20047;-82
2021/07/04 08:20:19;;;;;;;7.00;3.72;;;;;;;21.51;57.26;99547.94;5049149;28;20128;-81
2021/07/04 08:22:45;;;;;;;8.68;4.60;;;;;;;21.64;56.95;99538.13;5032157;28;20482;-85
2021/07/04 08:25:12;;;;;;;7.03;4.85;;;;;;;21.66;56.36;99541.53;5050419;28;20060;-80
2021/07/04 08:27:37;;;;;;;7.30;4.40;;;;;;;21.78;56.12;99529.97;5051700;28;20048;-84
2021/07/04 08:30:06;;;;;;;6.63;3.55;;;;;;;21.97;55.48;99541.94;5017880;28;20049;-84
2021/07/04 08:32:32;;;;;;;6.20;3.00;;;;;;;22.20;54.34;99535.75;5035550;28;20075;-87
2021/07/04 08:34:58;;;;;;;8.07;3.75;;;;;;;22.14;54.46;99538.88;5034782;28;20045;-81
2021/07/04 08:37:31;;;;;;;4.50;2.60;;;;;;;21.79;55.05;99523.69;5051078;28;20044;-82
2021/07/04 08:39:57;;;;;;;2.92;2.60;;;;;;;21.63;55.30;99541.75;5034498;28;20045;-81
2021/07/04 08:42:23;;;;;;;5.90;3.03;;;;;;;21.47;56.11;99536.66;5050790;28;20070;-82
2021/07/04 08:44:50;;;;;;;8.55;3.35;;;;;;;21.63;56.55;99531.09;5050352;28;20530;-80
2021/07/04 08:47:20;;;;;;;4.13;2.40;;;;;;;21.80;54.04;99549.34;5049968;28;20041;-81
2021/07/04 08:49:47;;;;;;;4.90;2.38;;;;;;;21.98;52.20;99535.63;5051058;28;20044;-81
2021/07/04 08:52:13;;;;;;;4.40;2.10;;;;;;;21.91;53.00;99518.41;5014950;28;20051;-81
2021/07/04 08:54:39;;;;;;;2.70;2.28;;;;;;;22.08;52.99;99534.00;5049727;28;20045;-81
2021/07/04 08:57:08;;;;;;;3.50;2.30;;;;;;;22.12;53.06;99535.47;5048770;28;20079;-83
2021/07/04 08:59:41;;;;;;;3.78;2.17;;;;;;;22.08;53.60;99531.34;5053577;28;20048;-70
2021/07/04 09:02:12;;;;;;;6.13;2.22;;;;;;;21.87;53.76;99526.63;5032750;28;20047;-80
2021/07/04 09:04:38;;;;;;;6.32;2.58;;;;;;;21.65;54.22;99518.53;5049386;28;20398;-75
2021/07/04 09:07:05;;;;;;;7.57;2.50;;;;;;;21.59;54.68;99524.31;5049477;28;20049;-71
2021/07/04 09:09:33;;;;;;;4.93;2.85;;;;;;;21.60;55.25;99520.69;5048823;28;20603;-75
2021/07/04 09:12:01;;;;;;;3.53;2.30;;;;;;;21.97;52.93;99526.78;5049915;28;20486;-69
2021/07/04 09:14:30;;;;;;;2.75;1.98;;;;;;;22.02;52.73;99516.66;5049545;28;20045;-70
2021/07/04 09:16:57;;;;;;;4.07;2.53;;;;;;;22.19;53.00;99534.91;5050962;28;20108;-72
2021/07/04 09:19:23;;;;;;;4.95;2.35;;;;;;;22.67;51.72;99529.47;5049723;28;20051;-69
2021/07/04 09:22:09;;;;;;;3.50;2.60;;;;;;;22.96;50.56;99534.38;5050131;28;20486;-70
2021/07/04 09:24:37;;;;;;;5.47;3.35;;;;;;;23.00;50.35;99523.34;5050009;28;20144;-67
2021/07/04 09:27:05;;;;;;;6.47;3.03;;;;;;;23.09;50.20;99541.34;5050335;28;20052;-67
2021/07/04 09:29:43;;;;;;;7.35;3.15;;;;;;;23.00;50.61;99526.03;5050485;28;20045;-63
2021/07/04 09:32:26;;;;;;;4.70;3.08;;;;;;;23.16;50.48;99530.16;5051190;28;20047;-84
2021/07/04 09:35:02;;;;;;;7.78;3.30;;;;;;;23.05;51.46;99534.53;5033237;28;20044;-80
2021/07/04 09:37:35;;;;;;;5.82;2.33;;;;;;;22.58;51.92;99540.00;5017409;28;20076;-68
2021/07/04 09:40:20;;;;;;;2.58;1.90;;;;;;;22.48;51.41;99524.72;5049990;28;20056;-68
2021/07/04 09:43:08;;;;;;;8.60;2.50;;;;;;;22.26;52.75;99535.28;5051125;28;20041;-68
2021/07/04 09:45:47;;;;;;;5.82;2.40;;;;;;;21.92;53.83;99530.78;5049706;28;20059;-70
2021/07/04 09:48:35;;;;;;;2.33;2.13;;;;;;;21.64;54.30;99522.16;5049801;28;20094;-71
2021/07/04 09:51:10;;;;;;;5.72;2.65;;;;;;;21.73;54.31;99524.13;5049776;28;20100;-71
2021/07/04 09:53:41;;;;;;;5.20;2.50;;;;;;;21.55;55.63;99530.78;5049521;28;20045;-75
2021/07/04 09:56:18;;;;;;;4.10;2.13;;;;;;;21.51;55.61;99532.81;5048742;28;20037;-74
2021/07/04 09:58:46;;;;;;;1.77;1.67;;;;;;;21.44;56.36;99536.03;5046648;28;20383;-66
2021/07/04 10:01:35;;;;;;;6.75;2.35;;;;;;;21.39;56.65;99543.50;5048711;28;20062;-68
2021/07/04 10:04:01;;;;;;;4.35;1.90;;;;;;;21.38;56.46;99534.66;5030321;28;20068;-68
2021/07/04 10:06:34;;;;;;;4.18;1.75;;;;;;;21.47;57.24;99546.47;5048640;28;20040;-70
2021/07/04 10:09:00;;;;;;;8.13;1.77;;;;;;;21.49;56.66;99518.78;5047895;28;20501;-67
2021/07/04 10:11:26;;;;;;;5.47;1.92;;;;;;;21.82;55.39;99520.78;5048794;28;20066;-71
2021/07/04 10:13:51;;;;;;;3.65;2.08;;;;;;;22.26;54.95;99515.78;5047456;28;20076;-73
2021/07/04 10:16:18;;;;;;;5.60;2.47;;;;;;;22.64;53.83;99519.06;5047512;28;20045;-74
2021/07/04 10:18:47;;;;;;;4.68;2.00;;;;;;;23.01;53.67;99527.72;5047009;28;20490;-71
2021/07/04 10:21:13;;;;;;;2.63;2.20;;;;;;;23.06;52.21;99514.91;5046550;28;20108;-78
2021/07/04 10:23:47;;;;;;;6.90;2.50;;;;;;;23.32;51.90;99515.47;5048200;28;20053;-76
2021/07/04 10:26:13;;;;;;;2.38;2.17;;;;;;;23.30;52.44;99527.25;5030508;28;20102;-74
2021/07/04 10:28:40;;;;;;;4.65;1.73;;;;;;;23.50;51.29;99521.16;5047795;28;20095;-79
2021/07/04 10:31:14;;;;;;;6.53;2.65;;;;;;;23.57;51.44;99526.88;5049011;28;20053;-74
2021/07/04 10:33:41;;;;;;;7.93;2.00;;;;;;;23.37;51.75;99509.78;5013335;28;20490;-68
2021/07/04 10:36:15;;;;;;;2.20;1.80;;;;;;;23.34;51.74;99526.03;5048737;28;20041;-73
2021/07/04 10:38:42;;;;;;;6.78;2.20;;;;;;;23.31;51.61;99526.28;5014925;28;20047;-69
2021/07/04 10:41:10;;;;;;;3.22;2.42;;;;;;;23.02;52.57;99524.06;5049242;28;20705;-70
2021/07/04 10:44:00;;;;;;;3.38;2.25;;;;;;;22.90;52.78;99540.22;5032504;28;20457;-80
2021/07/04 10:46:44;;;;;;;7.38;1.90;;;;;;;22.80;54.48;99540.06;5031209;28;20048;-68
2021/07/04 10:49:16;;;;;;;8.07;2.10;;;;;;;22.57;54.46;99519.66;5048851;28;20126;-67
2021/07/04 10:52:11;;;;;;;2.45;1.77;;;;;;;22.57;54.09;99533.81;5046973;28;20051;-66
2021/07/04 10:54:46;;;;;;;3.83;1.77;;;;;;;22.40;54.63;99543.13;5047021;28;20049;-66
2021/07/04 10:57:16;;;;;;;11.23;2.33;;;;;;;22.39;54.27;99541.41;5047505;28;20075;-67
2021/07/04 10:59:49;;;;;;;6.05;2.50;;;;;;;22.65;56.76;99541.22;5046405;28;20044;-78
2021/07/04 11:02:41;;;;;;;2.95;1.92;;;;;;;22.97;52.80;99547.59;5047045;28;20114;-70
2021/07/04 11:05:08;;;;;;;;;;;;;;;23.00;53.19;99546.50;5029817;28;20053;-69
2021/07/04 11:08:13;;;;;;;9.05;3.47;;;;;;;22.83;54.85;99550.50;5046595;28;19921;-64
2021/07/04 11:10:48;;;;;;;8.80;2.30;;;;;;;22.99;52.77;99540.34;5021945;28;20459;-70
2021/07/04 11:13:19;;;;;;;3.72;1.90;;;;;;;23.04;53.04;99535.50;5029352;28;20489;-72
2021/07/04 11:15:50;;;;;;;2.42;2.22;;;;;;;23.23;52.10;99534.06;5047321;28;20514;-72
2021/07/04 11:18:20;;;;;;;4.75;3.15;;;;;;;23.28;53.12;99535.38;5047237;28;20056;-77
2021/07/04 11:20:47;;;;;;;5.90;2.17;;;;;;;23.31;51.90;99535.13;5047370;28;20711;-71
2021/07/04 11:23:18;;;;;;;4.70;2.35;;;;;;;23.06;52.49;99536.25;5047294;28;20140;-69
2021/07/04 11:25:49;;;;;;;3.97;3.00;;;;;;;23.27;52.12;99539.03;5029185;28;20605;-70
2021/07/04 11:28:20;;;;;;;5.85;2.67;;;;;;;23.30;52.08;99536.09;5013465;28;20076;-75
2021/07/04 11:30:48;;;;;;;2.83;2.60;;;;;;;23.25;52.48;99524.94;5030640;28;20044;-73
2021/07/04 11:33:33;;;;;;;3.25;1.90;;;;;;;23.72;51.35;99531.81;5048854;28;20553;-70
2021/07/04 11:36:28;;;;;;;8.63;2.50;;;;;;;23.37;52.21;99533.78;5049287;28;20141;-68
2021/07/04 11:39:10;;;;;;;3.78;1.85;;;;;;;23.53;51.87;99528.91;5044507;28;20053;-68
2021/07/04 11:41:41;;;;;;;4.55;2.00;;;;;;;23.55;51.68;99521.66;5049581;28;20045;-67